• Join FlightAware (Why Join?)
  • Login
  • US Flag 
02:28AM EST


 

Airport Tracker/Info


-or-


 

Live Flight TrackerFlight Track Log ✈ SWA558 ✈ 27-Oct-2013 ✈ KSNA - KOAK

Flight Track Log - Related Links

Times and Time Zones

All times are in EDT time to prevent confusion due to time zone crossing. See the SWA558 flight status page for this flight to view local times or setup timezone preferences in your user account.

Time Position Orientation Groundspeed Altitude Reporting Facility
EDT Latitude Longitude Course Direction KTS MPH feet Rate Location/Type
07:08PM 33.6333 -117.8833 203° Southwest 148 170 2,000  Level Southern California TRACON
07:09PM 33.6000 -117.9000 203° Southwest 174 200 3,500 1,860 Climbing Southern California TRACON
07:10PM 33.5683 -117.8983 177° South 185 213 4,800 960 Climbing Los Angeles Center
07:11PM 33.5061 -117.9397 209° Southwest 244 281 5,000 1,200 Climbing Los Angeles Center
07:12PM 33.4425 -117.9856 211° Southwest 258 297 7,400 2,940 Climbing Los Angeles Center
07:13PM 33.3794 -118.0350 213° Southwest 266 306 11,100 3,720 Climbing Los Angeles Center
07:14PM 33.3756 -118.1392 267° West 309 356 15,200 3,720 Climbing Los Angeles Center
07:15PM 33.4239 -118.2575 296° West 359 413 18,800 3,120 Climbing Los Angeles Center
07:16PM 33.5328 -118.2944 344° North 401 461 21,700 2,700 Climbing Los Angeles Center
07:17PM 33.6464 -118.3344 344° North 415 478 24,500 2,400 Climbing Los Angeles Center
07:18PM 33.7558 -118.3714 344° North 444 511 26,700 2,220 Climbing Los Angeles Center
07:19PM 33.9008 -118.4217 344° North 452 520 29,100 2,340 Climbing Los Angeles Center
07:20PM 34.0156 -118.4733 340° North 450 518 31,600 2,040 Climbing Los Angeles Center
07:21PM 34.1322 -118.5294 338° Northwest 450 518 33,400 1,980 Climbing Los Angeles Center
07:22PM 34.2481 -118.5867 338° Northwest 450 518 35,700 1,740 Climbing Los Angeles Center
07:23PM 34.3628 -118.6439 338° Northwest 447 514 37,000 1,680 Climbing Los Angeles Center
07:24PM 34.5014 -118.7128 338° Northwest 451 519 39,200 1,440 Climbing Los Angeles Center
07:25PM 34.6122 -118.7681 338° Northwest 435 501 40,000 360 Climbing Los Angeles Center
07:26PM 34.7253 -118.8236 338° Northwest 437 503 40,000  Level Los Angeles Center
07:27PM 34.8322 -118.8917 332° Northwest 441 507 40,000  Level Los Angeles Center
07:29PM 34.9236 -118.9806 321° Northwest 421 484 40,000  Level Los Angeles Center
07:30PM 35.0522 -119.1067 321° Northwest 424 488 40,000  Level Los Angeles Center
07:31PM 35.1458 -119.1944 323° Northwest 427 491 40,000  Level Los Angeles Center
07:32PM 35.2347 -119.2822 321° Northwest 417 480 40,000  Level Los Angeles Center
07:33PM 35.3242 -119.3703 321° Northwest 416 479 40,000  Level Los Angeles Center
07:34PM 35.4136 -119.4586 321° Northwest 416 479 40,000  Level Los Angeles Center
07:35PM 35.5028 -119.5475 321° Northwest 416 479 40,000  Level Los Angeles Center
07:36PM 35.6114 -119.6567 321° Northwest 423 487 40,000  Level Los Angeles Center
07:37PM 35.7217 -119.7667 321° Northwest 429 494 40,000  Level Los Angeles Center
07:38PM 35.8131 -119.8575 321° Northwest 427 491 40,000  Level Los Angeles Center
07:39PM 35.9058 -119.9506 321° Northwest 433 498 40,000  Level Oakland Center
07:40PM 35.9975 -120.0472 320° Northwest 436 502 40,000  Level Oakland Center
07:41PM 36.0919 -120.1411 321° Northwest 437 503 40,000 -300 Level Oakland Center
07:42PM 36.1850 -120.2369 320° Northwest 438 504 39,500 -840 Descending Oakland Center
07:43PM 36.2944 -120.3486 321° Northwest 428 493 38,300 -1,080 Descending Oakland Center
07:44PM 36.3872 -120.4403 322° Northwest 427 491 37,400 -1,680 Descending Oakland Center
07:45PM 36.4775 -120.5361 320° Northwest 427 491 34,900 -2,700 Descending Oakland Center
07:46PM 36.5750 -120.6131 328° Northwest 425 489 31,900 -2,580 Descending Oakland Center
07:47PM 36.6761 -120.6758 334° Northwest 405 466 29,600 -1,920 Descending Oakland Center
07:48PM 36.7536 -120.7764 314° West 401 461 28,000 -2,580 Descending Oakland Center
07:49PM 36.8408 -120.8853 315° West 396 456 24,400 -3,240 Descending Oakland Center
07:50PM 36.9197 -120.9794 316° Northwest 392 451 21,400 -2,520 Descending Oakland Center
07:51PM 36.9942 -121.0733 315° West 382 440 19,300 -2,040 Descending Oakland Center
07:52PM 37.0636 -121.1589 316° Northwest 349 402 17,300 -2,400 Descending Oakland Center
07:53PM 37.1278 -121.2367 316° Northwest 333 383 14,500 -2,400 Descending Oakland Center
07:54PM 37.1933 -121.3206 314° West 336 387 12,500 -1,980 Descending Oakland Center
07:55PM 37.2564 -121.3978 316° Northwest 321 369 10,500 -1,740 Descending Oakland Center
07:57PM 37.3272 -121.4867 315° West 301 346 9,000 -1,680 Descending Oakland Center
07:58PM 37.3822 -121.5492 318° Northwest 282 325 7,100 -1,380 Descending Oakland Center
07:58PM 37.4167 -121.6000 310° West 271 312 6,700 -720 Descending Northern Cal TRACON
07:59PM 37.4667 -121.6500 322° Northwest 257 296 6,000 -360 Descending Northern Cal TRACON
08:00PM 37.5333 -121.7167 322° Northwest 255 293 6,000  Level Northern Cal TRACON
08:01PM 37.5500 -121.8000 284° West 244 281 6,000  Level Northern Cal TRACON
08:02PM 37.5500 -121.8833 270° West 208 239 6,000 -360 Level Northern Cal TRACON
08:03PM 37.5500 -121.9333 270° West 171 197 5,300 -900 Descending Northern Cal TRACON
08:04PM 37.5667 -121.9833 293° West 164 189 4,300 -1,200 Descending Northern Cal TRACON
08:05PM 37.5833 -122.0500 288° West 182 209 3,000 -900 Descending Northern Cal TRACON
08:06PM 37.6167 -122.0833 322° Northwest 170 196 2,500 -720 Descending Northern Cal TRACON
08:07PM 37.6500 -122.1333 310° West 158 182 1,600 -840 Descending Northern Cal TRACON
08:08PM 37.6667 -122.1667 302° West 121 139 900 -660 Descending Northern Cal TRACON
08:09PM 37.7000 -122.2000 322° Northwest 125 144 300 -600 Descending Northern Cal TRACON
08:12PM 37.7167 -122.2167 270° West  Level FlightAware Approximate
08:19PM 37.7213 -122.2207 270° West  Level Estimated